sensor_id;sensor_type;location;lat;lon;timestamp;P1;durP1;ratioP1;P2;durP2;ratioP2
75990;SDS011;64673;52.276;10.560;2023-07-09T00:01:55;9.13;;;5.85;;
75990;SDS011;64673;52.276;10.560;2023-07-09T00:04:20;8.70;;;5.90;;
75990;SDS011;64673;52.276;10.560;2023-07-09T00:06:46;11.88;;;6.10;;
75990;SDS011;64673;52.276;10.560;2023-07-09T00:09:12;9.68;;;6.05;;
75990;SDS011;64673;52.276;10.560;2023-07-09T00:11:40;8.00;;;5.55;;
75990;SDS011;64673;52.276;10.560;2023-07-09T00:14:06;11.13;;;6.10;;
75990;SDS011;64673;52.276;10.560;2023-07-09T00:16:33;8.93;;;6.10;;
75990;SDS011;64673;52.276;10.560;2023-07-09T00:18:58;8.95;;;6.70;;
75990;SDS011;64673;52.276;10.560;2023-07-09T00:21:24;9.05;;;6.22;;
75990;SDS011;64673;52.276;10.560;2023-07-09T00:23:49;11.82;;;6.55;;
75990;SDS011;64673;52.276;10.560;2023-07-09T00:26:15;8.25;;;5.30;;
75990;SDS011;64673;52.276;10.560;2023-07-09T00:28:42;7.78;;;5.38;;
75990;SDS011;64673;52.276;10.560;2023-07-09T00:31:11;7.80;;;5.13;;
75990;SDS011;64673;52.276;10.560;2023-07-09T00:33:39;8.85;;;5.43;;
75990;SDS011;64673;52.276;10.560;2023-07-09T00:36:15;7.47;;;5.00;;
75990;SDS011;64673;52.276;10.560;2023-07-09T00:39:01;8.50;;;5.05;;
75990;SDS011;64673;52.276;10.560;2023-07-09T00:41:31;7.15;;;4.88;;
75990;SDS011;64673;52.276;10.560;2023-07-09T00:44:13;7.82;;;5.10;;
75990;SDS011;64673;52.276;10.560;2023-07-09T00:49:15;5.93;;;4.72;;
75990;SDS011;64673;52.276;10.560;2023-07-09T00:51:50;6.78;;;4.25;;
75990;SDS011;64673;52.276;10.560;2023-07-09T00:54:23;7.10;;;4.40;;
75990;SDS011;64673;52.276;10.560;2023-07-09T00:57:06;8.20;;;4.60;;
75990;SDS011;64673;52.276;10.560;2023-07-09T00:59:37;6.88;;;4.68;;
75990;SDS011;64673;52.276;10.560;2023-07-09T01:02:04;7.53;;;4.90;;
75990;SDS011;64673;52.276;10.560;2023-07-09T01:04:32;7.28;;;4.68;;
75990;SDS011;64673;52.276;10.560;2023-07-09T01:06:57;8.63;;;4.63;;
75990;SDS011;64673;52.276;10.560;2023-07-09T01:09:23;7.43;;;4.82;;
75990;SDS011;64673;52.276;10.560;2023-07-09T01:11:49;8.52;;;5.53;;
75990;SDS011;64673;52.276;10.560;2023-07-09T01:14:15;8.05;;;5.00;;
75990;SDS011;64673;52.276;10.560;2023-07-09T01:16:46;7.05;;;4.57;;
75990;SDS011;64673;52.276;10.560;2023-07-09T01:19:22;7.75;;;4.68;;
75990;SDS011;64673;52.276;10.560;2023-07-09T01:21:50;7.22;;;4.90;;
75990;SDS011;64673;52.276;10.560;2023-07-09T01:27:35;6.90;;;4.60;;
75990;SDS011;64673;52.276;10.560;2023-07-09T01:30:07;7.03;;;4.85;;
75990;SDS011;64673;52.276;10.560;2023-07-09T01:32:37;8.35;;;5.18;;
75990;SDS011;64673;52.276;10.560;2023-07-09T01:35:04;6.90;;;5.28;;
75990;SDS011;64673;52.276;10.560;2023-07-09T01:37:32;8.45;;;4.90;;
75990;SDS011;64673;52.276;10.560;2023-07-09T01:40:00;7.25;;;4.85;;
75990;SDS011;64673;52.276;10.560;2023-07-09T01:42:26;7.60;;;4.97;;
75990;SDS011;64673;52.276;10.560;2023-07-09T01:44:54;7.07;;;5.10;;
75990;SDS011;64673;52.276;10.560;2023-07-09T01:47:20;8.00;;;5.43;;
75990;SDS011;64673;52.276;10.560;2023-07-09T01:49:45;7.40;;;5.03;;
75990;SDS011;64673;52.276;10.560;2023-07-09T01:52:11;6.63;;;4.60;;
75990;SDS011;64673;52.276;10.560;2023-07-09T01:54:39;10.18;;;5.70;;
75990;SDS011;64673;52.276;10.560;2023-07-09T01:57:21;8.50;;;5.40;;
75990;SDS011;64673;52.276;10.560;2023-07-09T01:59:51;6.78;;;4.82;;
75990;SDS011;64673;52.276;10.560;2023-07-09T02:02:21;7.82;;;5.05;;
75990;SDS011;64673;52.276;10.560;2023-07-09T02:04:51;7.10;;;5.10;;
75990;SDS011;64673;52.276;10.560;2023-07-09T02:07:18;7.90;;;5.40;;
75990;SDS011;64673;52.276;10.560;2023-07-09T02:09:44;10.15;;;5.43;;
75990;SDS011;64673;52.276;10.560;2023-07-09T02:12:10;8.60;;;5.60;;
75990;SDS011;64673;52.276;10.560;2023-07-09T02:14:37;6.82;;;5.30;;
75990;SDS011;64673;52.276;10.560;2023-07-09T02:17:03;9.75;;;5.38;;
75990;SDS011;64673;52.276;10.560;2023-07-09T02:19:28;7.22;;;5.40;;
75990;SDS011;64673;52.276;10.560;2023-07-09T02:21:54;6.68;;;5.60;;
75990;SDS011;64673;52.276;10.560;2023-07-09T02:24:20;6.93;;;5.55;;
75990;SDS011;64673;52.276;10.560;2023-07-09T02:26:49;11.60;;;6.13;;
75990;SDS011;64673;52.276;10.560;2023-07-09T02:29:15;9.57;;;6.63;;
75990;SDS011;64673;52.276;10.560;2023-07-09T02:31:41;10.15;;;6.30;;
75990;SDS011;64673;52.276;10.560;2023-07-09T02:34:06;10.93;;;6.30;;
75990;SDS011;64673;52.276;10.560;2023-07-09T02:36:32;9.98;;;5.90;;
75990;SDS011;64673;52.276;10.560;2023-07-09T02:38:57;10.80;;;5.78;;
75990;SDS011;64673;52.276;10.560;2023-07-09T02:41:22;7.88;;;5.13;;
75990;SDS011;64673;52.276;10.560;2023-07-09T02:43:48;9.20;;;5.63;;
75990;SDS011;64673;52.276;10.560;2023-07-09T02:46:13;7.65;;;5.20;;
75990;SDS011;64673;52.276;10.560;2023-07-09T02:48:38;8.75;;;5.47;;
75990;SDS011;64673;52.276;10.560;2023-07-09T02:51:04;9.88;;;6.15;;
75990;SDS011;64673;52.276;10.560;2023-07-09T02:53:29;7.93;;;5.40;;
75990;SDS011;64673;52.276;10.560;2023-07-09T02:55:54;12.65;;;5.20;;
75990;SDS011;64673;52.276;10.560;2023-07-09T02:58:20;7.07;;;5.28;;
75990;SDS011;64673;52.276;10.560;2023-07-09T03:00:48;7.95;;;5.57;;
75990;SDS011;64673;52.276;10.560;2023-07-09T03:03:17;7.47;;;5.45;;
75990;SDS011;64673;52.276;10.560;2023-07-09T03:05:44;8.10;;;5.60;;
75990;SDS011;64673;52.276;10.560;2023-07-09T03:08:12;8.57;;;5.93;;
75990;SDS011;64673;52.276;10.560;2023-07-09T03:10:38;7.25;;;5.32;;
75990;SDS011;64673;52.276;10.560;2023-07-09T03:13:03;7.88;;;5.13;;
75990;SDS011;64673;52.276;10.560;2023-07-09T03:15:30;8.20;;;5.97;;
75990;SDS011;64673;52.276;10.560;2023-07-09T03:17:56;8.48;;;5.72;;
75990;SDS011;64673;52.276;10.560;2023-07-09T03:20:21;7.13;;;5.45;;
75990;SDS011;64673;52.276;10.560;2023-07-09T03:22:46;7.47;;;5.53;;
75990;SDS011;64673;52.276;10.560;2023-07-09T03:25:12;8.65;;;5.40;;
75990;SDS011;64673;52.276;10.560;2023-07-09T03:27:37;7.70;;;5.20;;
75990;SDS011;64673;52.276;10.560;2023-07-09T03:30:02;8.40;;;5.70;;
75990;SDS011;64673;52.276;10.560;2023-07-09T03:32:28;8.10;;;5.45;;
75990;SDS011;64673;52.276;10.560;2023-07-09T03:34:54;7.97;;;5.32;;
75990;SDS011;64673;52.276;10.560;2023-07-09T03:37:20;8.55;;;5.65;;
75990;SDS011;64673;52.276;10.560;2023-07-09T03:39:45;9.75;;;5.53;;
75990;SDS011;64673;52.276;10.560;2023-07-09T03:42:11;8.13;;;5.55;;
75990;SDS011;64673;52.276;10.560;2023-07-09T03:44:36;9.00;;;5.97;;
75990;SDS011;64673;52.276;10.560;2023-07-09T03:47:01;7.45;;;5.53;;
75990;SDS011;64673;52.276;10.560;2023-07-09T03:49:27;8.75;;;5.65;;
75990;SDS011;64673;52.276;10.560;2023-07-09T03:51:52;8.27;;;5.95;;
75990;SDS011;64673;52.276;10.560;2023-07-09T03:54:18;9.23;;;5.40;;
75990;SDS011;64673;52.276;10.560;2023-07-09T03:56:43;8.95;;;5.35;;
75990;SDS011;64673;52.276;10.560;2023-07-09T03:59:09;8.00;;;5.68;;
75990;SDS011;64673;52.276;10.560;2023-07-09T04:01:34;6.13;;;4.82;;
75990;SDS011;64673;52.276;10.560;2023-07-09T04:04:00;9.80;;;5.28;;
75990;SDS011;64673;52.276;10.560;2023-07-09T04:06:25;9.98;;;5.93;;
75990;SDS011;64673;52.276;10.560;2023-07-09T04:08:50;6.93;;;5.30;;
75990;SDS011;64673;52.276;10.560;2023-07-09T04:11:16;9.13;;;5.22;;
75990;SDS011;64673;52.276;10.560;2023-07-09T04:13:41;7.53;;;5.28;;
75990;SDS011;64673;52.276;10.560;2023-07-09T04:16:06;8.15;;;5.65;;
75990;SDS011;64673;52.276;10.560;2023-07-09T04:18:32;9.13;;;5.43;;
75990;SDS011;64673;52.276;10.560;2023-07-09T04:20:57;7.35;;;5.40;;
75990;SDS011;64673;52.276;10.560;2023-07-09T04:23:23;9.07;;;5.57;;
75990;SDS011;64673;52.276;10.560;2023-07-09T04:25:48;7.57;;;5.55;;
75990;SDS011;64673;52.276;10.560;2023-07-09T04:28:14;7.55;;;5.47;;
75990;SDS011;64673;52.276;10.560;2023-07-09T04:30:44;8.88;;;5.65;;
75990;SDS011;64673;52.276;10.560;2023-07-09T04:33:12;7.40;;;5.10;;
75990;SDS011;64673;52.276;10.560;2023-07-09T04:35:38;7.97;;;5.40;;
75990;SDS011;64673;52.276;10.560;2023-07-09T04:38:03;9.13;;;5.32;;
75990;SDS011;64673;52.276;10.560;2023-07-09T04:40:28;7.80;;;4.90;;
75990;SDS011;64673;52.276;10.560;2023-07-09T04:42:54;6.47;;;5.28;;
75990;SDS011;64673;52.276;10.560;2023-07-09T04:45:19;6.70;;;5.05;;
75990;SDS011;64673;52.276;10.560;2023-07-09T04:47:45;6.53;;;5.15;;
75990;SDS011;64673;52.276;10.560;2023-07-09T04:50:10;6.78;;;5.32;;
75990;SDS011;64673;52.276;10.560;2023-07-09T04:52:36;7.90;;;5.15;;
75990;SDS011;64673;52.276;10.560;2023-07-09T04:55:01;7.25;;;5.70;;
75990;SDS011;64673;52.276;10.560;2023-07-09T04:57:27;6.50;;;5.07;;
75990;SDS011;64673;52.276;10.560;2023-07-09T04:59:53;11.00;;;5.30;;
75990;SDS011;64673;52.276;10.560;2023-07-09T05:02:18;6.82;;;4.95;;
75990;SDS011;64673;52.276;10.560;2023-07-09T05:04:44;6.60;;;5.13;;
75990;SDS011;64673;52.276;10.560;2023-07-09T05:07:09;8.52;;;4.68;;
75990;SDS011;64673;52.276;10.560;2023-07-09T05:09:35;8.02;;;5.63;;
75990;SDS011;64673;52.276;10.560;2023-07-09T05:12:01;6.28;;;5.18;;
75990;SDS011;64673;52.276;10.560;2023-07-09T05:14:29;7.32;;;5.80;;
75990;SDS011;64673;52.276;10.560;2023-07-09T05:16:54;8.18;;;5.55;;
75990;SDS011;64673;52.276;10.560;2023-07-09T05:19:20;6.82;;;5.03;;
75990;SDS011;64673;52.276;10.560;2023-07-09T05:21:45;8.30;;;4.95;;
75990;SDS011;64673;52.276;10.560;2023-07-09T05:24:10;7.50;;;5.25;;
75990;SDS011;64673;52.276;10.560;2023-07-09T05:26:36;11.27;;;5.93;;
75990;SDS011;64673;52.276;10.560;2023-07-09T05:29:04;7.32;;;4.85;;
75990;SDS011;64673;52.276;10.560;2023-07-09T05:31:30;7.32;;;4.60;;
75990;SDS011;64673;52.276;10.560;2023-07-09T05:33:56;5.85;;;4.50;;
75990;SDS011;64673;52.276;10.560;2023-07-09T05:36:21;5.68;;;4.75;;
75990;SDS011;64673;52.276;10.560;2023-07-09T05:38:47;8.95;;;5.05;;
75990;SDS011;64673;52.276;10.560;2023-07-09T05:41:12;6.50;;;4.38;;
75990;SDS011;64673;52.276;10.560;2023-07-09T05:43:41;7.10;;;4.97;;
75990;SDS011;64673;52.276;10.560;2023-07-09T05:48:33;5.50;;;4.37;;
75990;SDS011;64673;52.276;10.560;2023-07-09T05:50:58;7.80;;;5.03;;
75990;SDS011;64673;52.276;10.560;2023-07-09T05:53:24;5.78;;;4.85;;
75990;SDS011;64673;52.276;10.560;2023-07-09T05:55:54;7.05;;;5.03;;
75990;SDS011;64673;52.276;10.560;2023-07-09T05:58:19;7.40;;;4.90;;
75990;SDS011;64673;52.276;10.560;2023-07-09T06:00:45;7.22;;;5.47;;
75990;SDS011;64673;52.276;10.560;2023-07-09T06:03:10;7.25;;;5.10;;
75990;SDS011;64673;52.276;10.560;2023-07-09T06:05:36;5.85;;;4.80;;
75990;SDS011;64673;52.276;10.560;2023-07-09T06:08:02;6.15;;;4.55;;
75990;SDS011;64673;52.276;10.560;2023-07-09T06:10:28;5.82;;;4.72;;
75990;SDS011;64673;52.276;10.560;2023-07-09T06:12:54;5.53;;;4.93;;
75990;SDS011;64673;52.276;10.560;2023-07-09T06:15:21;6.10;;;4.50;;
75990;SDS011;64673;52.276;10.560;2023-07-09T06:17:46;8.48;;;5.95;;
75990;SDS011;64673;52.276;10.560;2023-07-09T06:20:12;7.95;;;4.72;;
75990;SDS011;64673;52.276;10.560;2023-07-09T06:22:37;6.10;;;4.50;;
75990;SDS011;64673;52.276;10.560;2023-07-09T06:25:02;7.03;;;5.03;;
75990;SDS011;64673;52.276;10.560;2023-07-09T06:27:28;9.07;;;5.70;;
75990;SDS011;64673;52.276;10.560;2023-07-09T06:29:55;10.00;;;5.85;;
75990;SDS011;64673;52.276;10.560;2023-07-09T06:32:20;6.80;;;5.00;;
75990;SDS011;64673;52.276;10.560;2023-07-09T06:34:45;7.75;;;4.78;;
75990;SDS011;64673;52.276;10.560;2023-07-09T06:37:11;7.88;;;4.60;;
75990;SDS011;64673;52.276;10.560;2023-07-09T06:39:36;7.93;;;5.55;;
75990;SDS011;64673;52.276;10.560;2023-07-09T06:42:01;7.57;;;5.43;;
75990;SDS011;64673;52.276;10.560;2023-07-09T06:44:27;7.80;;;4.93;;
75990;SDS011;64673;52.276;10.560;2023-07-09T06:46:52;7.40;;;5.45;;
75990;SDS011;64673;52.276;10.560;2023-07-09T06:49:17;5.30;;;4.53;;
75990;SDS011;64673;52.276;10.560;2023-07-09T06:51:43;8.90;;;5.25;;
75990;SDS011;64673;52.276;10.560;2023-07-09T06:54:08;6.18;;;4.72;;
75990;SDS011;64673;52.276;10.560;2023-07-09T06:56:34;7.18;;;5.07;;
75990;SDS011;64673;52.276;10.560;2023-07-09T06:58:59;7.18;;;4.93;;
75990;SDS011;64673;52.276;10.560;2023-07-09T07:01:25;7.13;;;5.07;;
75990;SDS011;64673;52.276;10.560;2023-07-09T07:03:50;7.47;;;5.30;;
75990;SDS011;64673;52.276;10.560;2023-07-09T07:06:16;7.93;;;5.68;;
75990;SDS011;64673;52.276;10.560;2023-07-09T07:08:41;6.70;;;5.32;;
75990;SDS011;64673;52.276;10.560;2023-07-09T07:11:07;11.05;;;4.93;;
75990;SDS011;64673;52.276;10.560;2023-07-09T07:13:33;5.72;;;5.05;;
75990;SDS011;64673;52.276;10.560;2023-07-09T07:16:12;6.72;;;4.80;;
75990;SDS011;64673;52.276;10.560;2023-07-09T07:18:37;6.68;;;5.10;;
75990;SDS011;64673;52.276;10.560;2023-07-09T07:21:03;6.97;;;4.90;;
75990;SDS011;64673;52.276;10.560;2023-07-09T07:23:29;6.90;;;5.15;;
75990;SDS011;64673;52.276;10.560;2023-07-09T07:25:55;6.10;;;5.35;;
75990;SDS011;64673;52.276;10.560;2023-07-09T07:28:20;5.97;;;4.88;;
75990;SDS011;64673;52.276;10.560;2023-07-09T07:30:46;7.28;;;5.35;;
75990;SDS011;64673;52.276;10.560;2023-07-09T07:33:13;5.90;;;4.97;;
75990;SDS011;64673;52.276;10.560;2023-07-09T07:35:41;8.27;;;5.28;;
75990;SDS011;64673;52.276;10.560;2023-07-09T07:38:06;6.80;;;5.07;;
75990;SDS011;64673;52.276;10.560;2023-07-09T07:40:31;6.78;;;5.53;;
75990;SDS011;64673;52.276;10.560;2023-07-09T07:42:57;6.40;;;4.90;;
75990;SDS011;64673;52.276;10.560;2023-07-09T07:45:22;5.95;;;5.05;;
75990;SDS011;64673;52.276;10.560;2023-07-09T07:47:48;6.50;;;5.20;;
75990;SDS011;64673;52.276;10.560;2023-07-09T07:50:16;7.43;;;5.28;;
75990;SDS011;64673;52.276;10.560;2023-07-09T07:52:41;7.53;;;5.03;;
75990;SDS011;64673;52.276;10.560;2023-07-09T07:55:07;6.30;;;4.95;;
75990;SDS011;64673;52.276;10.560;2023-07-09T07:57:33;6.85;;;4.82;;
75990;SDS011;64673;52.276;10.560;2023-07-09T07:59:59;6.75;;;5.05;;
75990;SDS011;64673;52.276;10.560;2023-07-09T08:02:25;6.18;;;5.18;;
75990;SDS011;64673;52.276;10.560;2023-07-09T08:04:50;6.78;;;4.85;;
75990;SDS011;64673;52.276;10.560;2023-07-09T08:07:17;8.98;;;5.70;;
75990;SDS011;64673;52.276;10.560;2023-07-09T08:09:43;5.60;;;5.00;;
75990;SDS011;64673;52.276;10.560;2023-07-09T08:12:10;6.78;;;5.22;;
75990;SDS011;64673;52.276;10.560;2023-07-09T08:14:38;5.85;;;5.22;;
75990;SDS011;64673;52.276;10.560;2023-07-09T08:17:04;6.18;;;5.20;;
75990;SDS011;64673;52.276;10.560;2023-07-09T08:19:30;7.20;;;5.22;;
75990;SDS011;64673;52.276;10.560;2023-07-09T08:21:56;5.65;;;4.95;;
75990;SDS011;64673;52.276;10.560;2023-07-09T08:24:22;9.88;;;5.88;;
75990;SDS011;64673;52.276;10.560;2023-07-09T08:26:47;10.45;;;5.38;;
75990;SDS011;64673;52.276;10.560;2023-07-09T08:29:12;5.97;;;5.28;;
75990;SDS011;64673;52.276;10.560;2023-07-09T08:31:38;7.43;;;5.18;;
75990;SDS011;64673;52.276;10.560;2023-07-09T08:34:05;9.00;;;5.55;;
75990;SDS011;64673;52.276;10.560;2023-07-09T08:36:31;7.80;;;5.50;;
75990;SDS011;64673;52.276;10.560;2023-07-09T08:38:56;7.07;;;5.25;;
75990;SDS011;64673;52.276;10.560;2023-07-09T08:47:23;5.78;;;5.10;;
75990;SDS011;64673;52.276;10.560;2023-07-09T08:50:01;5.90;;;5.05;;
75990;SDS011;64673;52.276;10.560;2023-07-09T08:54:56;5.30;;;4.67;;
75990;SDS011;64673;52.276;10.560;2023-07-09T08:57:27;6.40;;;5.40;;
75990;SDS011;64673;52.276;10.560;2023-07-09T09:02:29;6.57;;;5.00;;
75990;SDS011;64673;52.276;10.560;2023-07-09T09:04:58;5.65;;;4.70;;
75990;SDS011;64673;52.276;10.560;2023-07-09T09:07:39;5.63;;;4.88;;
75990;SDS011;64673;52.276;10.560;2023-07-09T09:10:10;5.78;;;5.18;;
75990;SDS011;64673;52.276;10.560;2023-07-09T09:12:53;5.13;;;4.63;;
75990;SDS011;64673;52.276;10.560;2023-07-09T09:15:21;6.30;;;4.60;;
75990;SDS011;64673;52.276;10.560;2023-07-09T09:17:48;7.05;;;4.53;;
75990;SDS011;64673;52.276;10.560;2023-07-09T09:20:19;5.88;;;4.88;;
75990;SDS011;64673;52.276;10.560;2023-07-09T09:22:57;6.45;;;4.95;;
75990;SDS011;64673;52.276;10.560;2023-07-09T09:25:28;6.07;;;4.95;;
75990;SDS011;64673;52.276;10.560;2023-07-09T09:27:56;5.32;;;4.38;;
75990;SDS011;64673;52.276;10.560;2023-07-09T09:30:23;6.88;;;4.68;;
75990;SDS011;64673;52.276;10.560;2023-07-09T09:32:59;6.18;;;5.03;;
75990;SDS011;64673;52.276;10.560;2023-07-09T09:35:36;5.65;;;4.53;;
75990;SDS011;64673;52.276;10.560;2023-07-09T09:38:09;9.18;;;4.97;;
75990;SDS011;64673;52.276;10.560;2023-07-09T09:40:41;5.15;;;4.65;;
75990;SDS011;64673;52.276;10.560;2023-07-09T09:43:41;6.07;;;4.90;;
75990;SDS011;64673;52.276;10.560;2023-07-09T09:45:58;5.75;;;4.25;;
75990;SDS011;64673;52.276;10.560;2023-07-09T09:48:27;5.13;;;3.88;;
75990;SDS011;64673;52.276;10.560;2023-07-09T09:50:57;5.05;;;4.07;;
75990;SDS011;64673;52.276;10.560;2023-07-09T09:53:26;5.53;;;4.13;;
75990;SDS011;64673;52.276;10.560;2023-07-09T09:55:53;6.20;;;4.07;;
75990;SDS011;64673;52.276;10.560;2023-07-09T09:58:24;5.65;;;3.58;;
75990;SDS011;64673;52.276;10.560;2023-07-09T10:00:53;6.30;;;4.63;;
75990;SDS011;64673;52.276;10.560;2023-07-09T10:03:21;5.10;;;3.80;;
75990;SDS011;64673;52.276;10.560;2023-07-09T10:05:53;5.38;;;4.07;;
75990;SDS011;64673;52.276;10.560;2023-07-09T10:11:11;6.53;;;4.05;;
75990;SDS011;64673;52.276;10.560;2023-07-09T10:14:00;5.47;;;3.83;;
75990;SDS011;64673;52.276;10.560;2023-07-09T10:16:36;5.03;;;3.95;;
75990;SDS011;64673;52.276;10.560;2023-07-09T10:19:14;5.03;;;3.92;;
75990;SDS011;64673;52.276;10.560;2023-07-09T10:21:45;5.78;;;3.88;;
75990;SDS011;64673;52.276;10.560;2023-07-09T10:27:29;5.72;;;3.92;;
75990;SDS011;64673;52.276;10.560;2023-07-09T10:30:15;4.75;;;3.83;;
75990;SDS011;64673;52.276;10.560;2023-07-09T10:35:52;4.60;;;3.60;;
75990;SDS011;64673;52.276;10.560;2023-07-09T10:41:11;6.55;;;3.80;;
75990;SDS011;64673;52.276;10.560;2023-07-09T10:43:41;8.20;;;3.55;;
75990;SDS011;64673;52.276;10.560;2023-07-09T10:46:13;5.53;;;3.67;;
75990;SDS011;64673;52.276;10.560;2023-07-09T10:51:17;6.28;;;3.72;;
75990;SDS011;64673;52.276;10.560;2023-07-09T10:53:57;6.47;;;3.75;;
75990;SDS011;64673;52.276;10.560;2023-07-09T10:56:33;5.45;;;3.65;;
75990;SDS011;64673;52.276;10.560;2023-07-09T11:01:45;6.18;;;4.03;;
75990;SDS011;64673;52.276;10.560;2023-07-09T11:04:31;4.93;;;4.18;;
75990;SDS011;64673;52.276;10.560;2023-07-09T11:07:04;4.93;;;3.92;;
75990;SDS011;64673;52.276;10.560;2023-07-09T11:09:36;5.70;;;3.95;;
75990;SDS011;64673;52.276;10.560;2023-07-09T11:12:13;4.50;;;3.85;;
75990;SDS011;64673;52.276;10.560;2023-07-09T11:14:51;5.85;;;4.20;;
75990;SDS011;64673;52.276;10.560;2023-07-09T11:17:38;5.70;;;4.30;;
75990;SDS011;64673;52.276;10.560;2023-07-09T11:20:16;4.38;;;3.67;;
75990;SDS011;64673;52.276;10.560;2023-07-09T11:22:50;5.80;;;3.92;;
75990;SDS011;64673;52.276;10.560;2023-07-09T11:25:26;4.63;;;3.50;;
75990;SDS011;64673;52.276;10.560;2023-07-09T11:27:54;5.00;;;3.67;;
75990;SDS011;64673;52.276;10.560;2023-07-09T11:30:28;5.07;;;3.55;;
75990;SDS011;64673;52.276;10.560;2023-07-09T11:35:28;5.38;;;3.35;;
75990;SDS011;64673;52.276;10.560;2023-07-09T11:37:54;7.85;;;3.95;;
75990;SDS011;64673;52.276;10.560;2023-07-09T11:40:21;6.13;;;3.90;;
75990;SDS011;64673;52.276;10.560;2023-07-09T11:42:53;5.72;;;3.67;;
75990;SDS011;64673;52.276;10.560;2023-07-09T11:45:24;6.15;;;3.58;;
75990;SDS011;64673;52.276;10.560;2023-07-09T11:50:48;4.55;;;3.58;;
75990;SDS011;64673;52.276;10.560;2023-07-09T11:53:25;4.38;;;3.55;;
75990;SDS011;64673;52.276;10.560;2023-07-09T11:55:53;4.57;;;4.05;;
75990;SDS011;64673;52.276;10.560;2023-07-09T11:58:19;4.90;;;3.90;;
75990;SDS011;64673;52.276;10.560;2023-07-09T12:00:54;5.70;;;3.97;;
75990;SDS011;64673;52.276;10.560;2023-07-09T12:03:25;6.28;;;4.03;;
75990;SDS011;64673;52.276;10.560;2023-07-09T12:05:53;5.88;;;4.35;;
75990;SDS011;64673;52.276;10.560;2023-07-09T12:08:22;5.05;;;4.35;;
75990;SDS011;64673;52.276;10.560;2023-07-09T12:11:22;6.97;;;3.40;;
75990;SDS011;64673;52.276;10.560;2023-07-09T12:13:53;4.53;;;3.75;;
75990;SDS011;64673;52.276;10.560;2023-07-09T12:16:24;5.53;;;4.05;;
75990;SDS011;64673;52.276;10.560;2023-07-09T12:18:50;5.15;;;3.65;;
75990;SDS011;64673;52.276;10.560;2023-07-09T12:21:15;5.15;;;3.88;;
75990;SDS011;64673;52.276;10.560;2023-07-09T12:23:42;5.45;;;4.03;;
75990;SDS011;64673;52.276;10.560;2023-07-09T12:26:15;5.97;;;4.40;;
75990;SDS011;64673;52.276;10.560;2023-07-09T12:28:42;5.75;;;3.95;;
75990;SDS011;64673;52.276;10.560;2023-07-09T12:31:14;6.90;;;4.43;;
75990;SDS011;64673;52.276;10.560;2023-07-09T12:33:50;6.35;;;4.10;;
75990;SDS011;64673;52.276;10.560;2023-07-09T12:36:18;4.70;;;3.90;;
75990;SDS011;64673;52.276;10.560;2023-07-09T12:38:55;9.27;;;4.50;;
75990;SDS011;64673;52.276;10.560;2023-07-09T12:41:26;6.43;;;4.35;;
75990;SDS011;64673;52.276;10.560;2023-07-09T12:43:54;6.18;;;4.22;;
75990;SDS011;64673;52.276;10.560;2023-07-09T12:46:22;5.93;;;4.38;;
75990;SDS011;64673;52.276;10.560;2023-07-09T12:48:49;7.10;;;4.13;;
75990;SDS011;64673;52.276;10.560;2023-07-09T12:51:21;5.93;;;4.00;;
75990;SDS011;64673;52.276;10.560;2023-07-09T12:53:59;4.85;;;4.15;;
75990;SDS011;64673;52.276;10.560;2023-07-09T12:56:38;4.75;;;3.80;;
75990;SDS011;64673;52.276;10.560;2023-07-09T12:59:06;4.75;;;4.15;;
75990;SDS011;64673;52.276;10.560;2023-07-09T13:01:41;5.90;;;4.43;;
75990;SDS011;64673;52.276;10.560;2023-07-09T13:04:07;4.72;;;3.90;;
75990;SDS011;64673;52.276;10.560;2023-07-09T13:06:37;5.57;;;4.22;;
75990;SDS011;64673;52.276;10.560;2023-07-09T13:09:09;4.95;;;4.05;;
75990;SDS011;64673;52.276;10.560;2023-07-09T13:11:40;5.95;;;4.35;;
75990;SDS011;64673;52.276;10.560;2023-07-09T13:14:11;7.47;;;4.72;;
75990;SDS011;64673;52.276;10.560;2023-07-09T13:16:42;5.75;;;4.40;;
75990;SDS011;64673;52.276;10.560;2023-07-09T13:19:08;4.95;;;4.25;;
75990;SDS011;64673;52.276;10.560;2023-07-09T13:21:33;5.82;;;4.40;;
75990;SDS011;64673;52.276;10.560;2023-07-09T13:24:09;5.22;;;4.28;;
75990;SDS011;64673;52.276;10.560;2023-07-09T13:26:38;6.45;;;4.38;;
75990;SDS011;64673;52.276;10.560;2023-07-09T13:29:07;6.82;;;4.55;;
75990;SDS011;64673;52.276;10.560;2023-07-09T13:31:38;5.75;;;4.30;;
75990;SDS011;64673;52.276;10.560;2023-07-09T13:34:07;5.35;;;4.50;;
75990;SDS011;64673;52.276;10.560;2023-07-09T13:36:41;5.90;;;4.68;;
75990;SDS011;64673;52.276;10.560;2023-07-09T13:39:08;5.72;;;4.43;;
75990;SDS011;64673;52.276;10.560;2023-07-09T13:41:35;6.97;;;4.63;;
75990;SDS011;64673;52.276;10.560;2023-07-09T13:44:04;5.20;;;4.60;;
75990;SDS011;64673;52.276;10.560;2023-07-09T13:46:37;5.28;;;4.65;;
75990;SDS011;64673;52.276;10.560;2023-07-09T13:49:02;6.95;;;4.63;;
75990;SDS011;64673;52.276;10.560;2023-07-09T13:51:33;7.10;;;4.75;;
75990;SDS011;64673;52.276;10.560;2023-07-09T13:56:27;6.95;;;4.60;;
75990;SDS011;64673;52.276;10.560;2023-07-09T14:01:22;6.20;;;4.57;;
75990;SDS011;64673;52.276;10.560;2023-07-09T14:03:48;5.15;;;4.07;;
75990;SDS011;64673;52.276;10.560;2023-07-09T14:08:41;7.50;;;4.28;;
75990;SDS011;64673;52.276;10.560;2023-07-09T14:13:36;5.57;;;4.22;;
75990;SDS011;64673;52.276;10.560;2023-07-09T14:18:28;5.13;;;3.90;;
75990;SDS011;64673;52.276;10.560;2023-07-09T14:20:53;4.68;;;4.18;;
75990;SDS011;64673;52.276;10.560;2023-07-09T14:23:21;6.20;;;4.47;;
75990;SDS011;64673;52.276;10.560;2023-07-09T14:25:47;5.55;;;3.97;;
75990;SDS011;64673;52.276;10.560;2023-07-09T14:28:14;6.45;;;4.55;;
75990;SDS011;64673;52.276;10.560;2023-07-09T14:30:44;4.97;;;4.20;;
75990;SDS011;64673;52.276;10.560;2023-07-09T14:33:12;5.63;;;4.45;;
75990;SDS011;64673;52.276;10.560;2023-07-09T14:35:43;5.20;;;4.25;;
75990;SDS011;64673;52.276;10.560;2023-07-09T14:40:46;11.00;;;4.57;;
75990;SDS011;64673;52.276;10.560;2023-07-09T14:43:12;5.15;;;4.15;;
75990;SDS011;64673;52.276;10.560;2023-07-09T14:45:38;6.85;;;4.63;;
75990;SDS011;64673;52.276;10.560;2023-07-09T14:48:22;6.82;;;4.43;;
75990;SDS011;64673;52.276;10.560;2023-07-09T14:50:48;4.80;;;4.32;;
75990;SDS011;64673;52.276;10.560;2023-07-09T14:53:15;5.30;;;4.28;;
75990;SDS011;64673;52.276;10.560;2023-07-09T14:55:45;6.35;;;3.97;;
75990;SDS011;64673;52.276;10.560;2023-07-09T14:58:17;4.65;;;4.20;;
75990;SDS011;64673;52.276;10.560;2023-07-09T15:00:44;6.43;;;4.35;;
75990;SDS011;64673;52.276;10.560;2023-07-09T15:03:11;5.70;;;3.80;;
75990;SDS011;64673;52.276;10.560;2023-07-09T15:05:44;5.90;;;5.18;;
75990;SDS011;64673;52.276;10.560;2023-07-09T15:08:11;7.35;;;4.15;;
75990;SDS011;64673;52.276;10.560;2023-07-09T15:10:38;4.80;;;4.05;;
75990;SDS011;64673;52.276;10.560;2023-07-09T15:13:04;6.65;;;4.32;;
75990;SDS011;64673;52.276;10.560;2023-07-09T15:15:30;6.72;;;4.63;;
75990;SDS011;64673;52.276;10.560;2023-07-09T15:17:56;5.03;;;4.05;;
75990;SDS011;64673;52.276;10.560;2023-07-09T15:20:25;6.88;;;4.90;;
75990;SDS011;64673;52.276;10.560;2023-07-09T15:22:54;5.10;;;4.20;;
75990;SDS011;64673;52.276;10.560;2023-07-09T15:25:25;8.50;;;4.80;;
75990;SDS011;64673;52.276;10.560;2023-07-09T15:27:53;8.65;;;4.60;;
75990;SDS011;64673;52.276;10.560;2023-07-09T15:30:21;6.47;;;4.38;;
75990;SDS011;64673;52.276;10.560;2023-07-09T15:32:49;5.00;;;4.32;;
75990;SDS011;64673;52.276;10.560;2023-07-09T15:35:15;7.07;;;4.03;;
75990;SDS011;64673;52.276;10.560;2023-07-09T15:37:42;6.38;;;4.68;;